createdAt,value
2022-08-12T00:00:17.636Z,19.77
2022-08-12T00:03:07.848Z,19.79
2022-08-12T00:06:05.119Z,19.83
2022-08-12T00:08:59.235Z,19.84
2022-08-12T00:11:49.463Z,19.83
2022-08-12T00:14:39.387Z,19.80
2022-08-12T00:17:30.779Z,19.76
2022-08-12T00:20:21.050Z,19.71
2022-08-12T00:23:11.216Z,19.67
2022-08-12T00:26:22.816Z,19.61
2022-08-12T00:29:12.789Z,19.57
2022-08-12T00:32:02.709Z,19.55
2022-08-12T00:34:53.970Z,19.49
2022-08-12T00:37:44.191Z,19.43
2022-08-12T00:40:34.364Z,19.37
2022-08-12T00:43:07.064Z,19.29
2022-08-12T00:45:58.586Z,19.26
2022-08-12T00:48:31.259Z,19.20
2022-08-12T00:51:03.229Z,19.13
2022-08-12T00:53:35.768Z,19.10
2022-08-12T00:56:07.416Z,19.06
2022-08-12T00:58:46.162Z,19.03
2022-08-12T01:01:18.086Z,18.98
2022-08-12T01:04:08.801Z,18.96
2022-08-12T01:07:00.287Z,18.93
2022-08-12T01:09:50.374Z,18.95
2022-08-12T01:12:21.930Z,18.94
2022-08-12T01:14:56.131Z,18.86
2022-08-12T01:17:28.154Z,18.83
2022-08-12T01:20:06.018Z,18.76
2022-08-12T01:22:37.957Z,18.78
2022-08-12T01:25:21.216Z,18.79
2022-08-12T01:27:53.098Z,18.83
2022-08-12T01:30:26.355Z,18.83
2022-08-12T01:32:59.345Z,18.83
2022-08-12T01:35:33.076Z,18.81
2022-08-12T01:38:08.410Z,18.83
2022-08-12T01:40:46.945Z,18.78
2022-08-12T01:43:21.575Z,18.66
2022-08-12T01:46:04.238Z,18.63
2022-08-12T01:49:01.358Z,18.54
2022-08-12T01:52:15.086Z,18.53
2022-08-12T01:54:39.743Z,18.50
2022-08-12T01:57:11.247Z,18.50
2022-08-12T02:00:01.416Z,18.51
2022-08-12T02:02:39.735Z,18.48
2022-08-12T02:05:48.414Z,18.45
2022-08-12T02:08:52.302Z,18.41
2022-08-12T02:11:44.793Z,18.40
2022-08-12T02:14:16.314Z,18.38
2022-08-12T02:17:06.374Z,18.38
2022-08-12T02:20:04.003Z,18.32
2022-08-12T02:22:41.275Z,18.28
2022-08-12T02:25:15.639Z,18.24
2022-08-12T02:27:51.842Z,18.20
2022-08-12T02:30:24.626Z,18.17
2022-08-12T02:32:56.965Z,18.12
2022-08-12T02:35:30.203Z,18.05
2022-08-12T02:38:04.365Z,18.02
2022-08-12T02:40:37.634Z,17.96
2022-08-12T02:43:14.930Z,17.91
2022-08-12T02:45:51.260Z,17.88
2022-08-12T02:48:28.680Z,17.89
2022-08-12T02:51:07.110Z,17.90
2022-08-12T02:53:39.281Z,17.90
2022-08-12T02:56:12.508Z,17.89
2022-08-12T02:58:46.187Z,17.86
2022-08-12T03:01:22.185Z,17.80
2022-08-12T03:03:55.959Z,17.78
2022-08-12T03:06:32.201Z,17.75
2022-08-12T03:09:05.558Z,17.74
2022-08-12T03:11:42.854Z,17.70
2022-08-12T03:14:21.691Z,17.67
2022-08-12T03:17:09.633Z,17.63
2022-08-12T03:20:10.315Z,17.58
2022-08-12T03:22:40.567Z,17.56
2022-08-12T03:25:17.034Z,17.48
2022-08-12T03:27:55.668Z,17.43
2022-08-12T03:30:28.644Z,17.43
2022-08-12T03:33:01.318Z,17.44
2022-08-12T03:35:40.404Z,17.47
2022-08-12T03:38:16.233Z,17.44
2022-08-12T03:41:18.154Z,17.44
2022-08-12T03:44:20.079Z,17.45
2022-08-12T03:47:39.097Z,17.45
2022-08-12T03:50:31.627Z,17.46
2022-08-12T03:53:22.999Z,17.47
2022-08-12T03:56:13.423Z,17.48
2022-08-12T03:59:03.780Z,17.48
2022-08-12T04:01:40.889Z,17.45
2022-08-12T04:04:12.595Z,17.46
2022-08-12T04:06:47.310Z,17.43
2022-08-12T04:09:21.063Z,17.43
2022-08-12T04:12:11.041Z,17.48
2022-08-12T04:14:42.510Z,17.54
2022-08-12T04:17:15.081Z,17.58
2022-08-12T04:19:47.905Z,17.60
2022-08-12T04:22:19.386Z,17.53
2022-08-12T04:24:53.551Z,17.52
2022-08-12T04:27:25.492Z,17.57
2022-08-12T04:30:29.704Z,17.58
2022-08-12T04:32:51.088Z,17.63
2022-08-12T04:35:23.442Z,17.69
2022-08-12T04:37:58.001Z,17.73
2022-08-12T04:40:33.176Z,17.79
2022-08-12T04:43:05.515Z,17.86
2022-08-12T04:45:37.796Z,17.93
2022-08-12T04:48:09.313Z,18.05
2022-08-12T04:50:41.505Z,18.21
2022-08-12T04:53:13.360Z,18.25
2022-08-12T04:55:46.655Z,18.39
2022-08-12T04:58:30.023Z,18.43
2022-08-12T05:01:01.618Z,18.49
2022-08-12T05:03:46.406Z,18.66
2022-08-12T05:06:26.298Z,18.85
2022-08-12T05:09:01.935Z,19.06
2022-08-12T05:11:54.093Z,19.29
2022-08-12T05:14:26.103Z,19.52
2022-08-12T05:16:57.573Z,19.72
2022-08-12T05:19:30.377Z,19.94
2022-08-12T05:22:02.153Z,20.02
2022-08-12T05:24:35.699Z,20.16
2022-08-12T05:27:07.190Z,20.39
2022-08-12T05:30:07.087Z,20.65
2022-08-12T05:32:31.711Z,20.79
2022-08-12T05:35:09.228Z,20.67
2022-08-12T05:37:40.742Z,20.90
2022-08-12T05:40:14.730Z,21.01
2022-08-12T05:42:46.876Z,21.22
2022-08-12T05:45:18.628Z,21.44
2022-08-12T05:47:53.588Z,21.52
2022-08-12T05:50:28.497Z,21.78
2022-08-12T05:53:00.081Z,21.79
2022-08-12T05:55:31.904Z,22.06
2022-08-12T05:58:04.845Z,22.30
2022-08-12T06:00:37.214Z,22.41
2022-08-12T06:03:09.029Z,22.31
2022-08-12T06:05:52.614Z,22.24
2022-08-12T06:08:27.417Z,22.54
2022-08-12T06:10:58.920Z,22.71
2022-08-12T06:13:54.241Z,22.83
2022-08-12T06:16:23.198Z,23.10
2022-08-12T06:18:54.803Z,23.27
2022-08-12T06:21:26.329Z,23.44
2022-08-12T06:23:58.338Z,23.46
2022-08-12T06:26:29.934Z,23.57
2022-08-12T06:29:04.260Z,23.77
2022-08-12T06:31:38.933Z,24.14
2022-08-12T06:35:25.431Z,24.08
2022-08-12T06:37:02.377Z,24.10
2022-08-12T06:39:34.315Z,24.24
2022-08-12T06:42:44.668Z,24.46
2022-08-12T06:45:16.399Z,24.18
2022-08-12T06:47:48.862Z,23.93
2022-08-12T06:50:20.516Z,23.85
2022-08-12T06:52:52.942Z,23.71
2022-08-12T06:55:26.070Z,23.61
2022-08-12T06:58:07.799Z,23.11
2022-08-12T07:00:46.617Z,22.84
2022-08-12T07:03:36.646Z,22.80
2022-08-12T07:06:11.651Z,22.85
2022-08-12T07:08:44.098Z,23.01
2022-08-12T07:11:15.920Z,23.37
2022-08-12T07:14:11.968Z,23.33
2022-08-12T07:16:55.647Z,23.42
2022-08-12T07:19:45.040Z,23.53
2022-08-12T07:22:17.807Z,23.52
2022-08-12T07:25:09.250Z,22.99
2022-08-12T07:27:42.566Z,23.06
2022-08-12T07:30:14.450Z,23.29
2022-08-12T07:32:49.698Z,23.59
2022-08-12T07:35:21.249Z,23.66
2022-08-12T07:37:53.288Z,23.92
2022-08-12T07:40:25.122Z,24.22
2022-08-12T07:43:06.363Z,24.32
2022-08-12T07:45:38.224Z,24.23
2022-08-12T07:48:09.697Z,24.21
2022-08-12T07:50:41.231Z,24.09
2022-08-12T07:53:12.700Z,23.89
2022-08-12T07:55:44.277Z,23.99
2022-08-12T07:58:15.806Z,24.19
2022-08-12T08:00:49.827Z,24.58
2022-08-12T08:03:25.829Z,24.81
2022-08-12T08:06:01.545Z,25.29
2022-08-12T08:08:33.054Z,25.59
2022-08-12T08:11:23.231Z,26.05
2022-08-12T08:13:54.698Z,25.75
2022-08-12T08:16:26.257Z,25.42
2022-08-12T08:18:59.386Z,25.28
2022-08-12T08:21:35.052Z,25.28
2022-08-12T08:24:15.677Z,25.09
2022-08-12T08:26:48.530Z,25.35
2022-08-12T08:29:24.324Z,25.56
2022-08-12T08:31:58.746Z,25.71
2022-08-12T08:34:53.630Z,25.84
2022-08-12T08:37:26.943Z,26.09
2022-08-12T08:40:25.586Z,26.15
2022-08-12T08:42:57.153Z,26.37
2022-08-12T08:45:28.813Z,26.58
2022-08-12T08:48:02.459Z,26.69
2022-08-12T08:50:33.979Z,26.56
2022-08-12T08:53:06.501Z,26.46
2022-08-12T08:56:03.578Z,26.77
2022-08-12T08:58:29.586Z,26.62
2022-08-12T09:01:02.677Z,26.48
2022-08-12T09:05:08.475Z,26.54
2022-08-12T09:06:36.011Z,26.80
2022-08-12T09:09:13.478Z,27.08
2022-08-12T09:12:11.132Z,26.90
2022-08-12T09:14:51.019Z,26.49
2022-08-12T09:17:24.095Z,25.95
2022-08-12T09:19:58.338Z,26.03
2022-08-12T09:22:30.389Z,26.20
2022-08-12T09:25:07.404Z,26.19
2022-08-12T09:30:41.964Z,26.15
2022-08-12T09:34:24.674Z,26.33
2022-08-12T09:36:05.920Z,25.97
2022-08-12T09:38:37.678Z,25.63
2022-08-12T09:42:32.716Z,25.29
2022-08-12T09:45:18.361Z,25.64
2022-08-12T09:47:45.538Z,25.90
2022-08-12T09:50:30.696Z,25.90
2022-08-12T09:53:16.382Z,25.98
2022-08-12T09:56:06.347Z,26.18
2022-08-12T09:58:56.993Z,26.01
2022-08-12T10:01:35.392Z,26.18
2022-08-12T10:04:24.024Z,26.27
2022-08-12T10:06:57.789Z,26.67
2022-08-12T10:09:58.585Z,27.29
2022-08-12T10:12:39.795Z,28.03
2022-08-12T10:16:00.919Z,28.41
2022-08-12T10:18:06.939Z,28.56
2022-08-12T10:20:40.243Z,28.52
2022-08-12T10:23:12.701Z,28.35
2022-08-12T10:26:36.102Z,27.82
2022-08-12T10:30:01.202Z,27.28
2022-08-12T10:32:21.202Z,26.83
2022-08-12T10:35:00.874Z,26.75
2022-08-12T10:38:34.247Z,26.73
2022-08-12T10:40:31.449Z,26.57
2022-08-12T10:43:25.069Z,26.27
2022-08-12T10:45:58.244Z,26.39
2022-08-12T10:48:34.567Z,26.82
2022-08-12T10:52:04.400Z,27.30
2022-08-12T10:54:00.560Z,27.99
2022-08-12T10:56:35.350Z,28.11
2022-08-12T10:59:11.049Z,28.34
2022-08-12T11:04:17.400Z,28.89
2022-08-12T11:04:44.761Z,28.66
2022-08-12T11:08:37.320Z,28.52
2022-08-12T11:10:13.868Z,28.52
2022-08-12T11:12:59.431Z,28.24
2022-08-12T11:16:03.405Z,27.61
2022-08-12T11:18:24.133Z,27.32
2022-08-12T11:20:57.826Z,27.32
2022-08-12T11:23:36.668Z,27.36
2022-08-12T11:26:09.254Z,27.07
2022-08-12T11:28:40.803Z,26.89
2022-08-12T11:31:13.943Z,26.57
2022-08-12T11:34:06.624Z,26.46
2022-08-12T11:36:39.370Z,26.50
2022-08-12T11:39:12.563Z,26.59
2022-08-12T11:41:44.330Z,26.54
2022-08-12T11:44:37.343Z,26.66
2022-08-12T11:47:09.638Z,27.03
2022-08-12T11:49:41.296Z,27.24
2022-08-12T11:52:53.946Z,27.42
2022-08-12T11:55:15.001Z,27.69
2022-08-12T11:58:17.186Z,27.84
2022-08-12T12:03:43.917Z,27.81
2022-08-12T12:06:20.764Z,28.17
2022-08-12T12:08:55.136Z,28.64
2022-08-12T12:11:26.733Z,28.68
2022-08-12T12:14:08.582Z,28.48
2022-08-12T12:16:49.887Z,28.37
2022-08-12T12:19:21.675Z,28.10
2022-08-12T12:21:55.462Z,28.12
2022-08-12T12:24:27.338Z,28.29
2022-08-12T12:27:00.674Z,28.46
2022-08-12T12:30:18.915Z,28.23
2022-08-12T12:32:29.212Z,27.89
2022-08-12T12:35:14.456Z,27.79
2022-08-12T12:38:05.341Z,27.75
2022-08-12T12:40:44.925Z,27.46
2022-08-12T12:43:16.714Z,27.59
2022-08-12T12:46:00.687Z,27.74
2022-08-12T12:48:32.344Z,28.02
2022-08-12T12:51:49.324Z,28.02
2022-08-12T12:54:09.953Z,28.28
2022-08-12T12:56:42.848Z,28.51
2022-08-12T12:59:33.703Z,28.75
2022-08-12T13:02:10.221Z,28.64
2022-08-12T13:04:41.737Z,28.36
2022-08-12T13:07:18.029Z,27.96
2022-08-12T13:09:50.343Z,27.57
2022-08-12T13:12:22.094Z,27.55
2022-08-12T13:14:53.568Z,27.68
2022-08-12T13:17:25.130Z,27.87
2022-08-12T13:20:37.522Z,28.02
2022-08-12T13:23:36.315Z,27.93
2022-08-12T13:26:02.154Z,27.86
2022-08-12T13:28:33.669Z,27.77
2022-08-12T13:31:06.470Z,27.76
2022-08-12T13:34:32.385Z,27.59
2022-08-12T13:36:30.891Z,27.34
2022-08-12T13:39:02.854Z,27.28
2022-08-12T13:41:35.660Z,27.27
2022-08-12T13:44:10.631Z,27.36
2022-08-12T13:46:42.920Z,27.41
2022-08-12T13:49:17.297Z,27.51
2022-08-12T13:51:53.650Z,27.44
2022-08-12T13:54:25.697Z,27.49
2022-08-12T13:56:57.253Z,27.58
2022-08-12T13:59:28.911Z,27.72
2022-08-12T14:02:22.506Z,27.82
2022-08-12T14:04:56.891Z,27.71
2022-08-12T14:07:30.950Z,27.83
2022-08-12T14:10:36.998Z,27.61
2022-08-12T14:14:02.597Z,27.64
2022-08-12T14:16:03.351Z,27.76
2022-08-12T14:18:36.322Z,27.91
2022-08-12T14:21:12.168Z,27.91
2022-08-12T14:24:05.387Z,27.94
2022-08-12T14:26:39.757Z,27.95
2022-08-12T14:29:21.600Z,27.99
2022-08-12T14:32:02.804Z,27.99
2022-08-12T14:34:34.898Z,28.03
2022-08-12T14:37:07.211Z,28.07
2022-08-12T14:39:50.604Z,27.93
2022-08-12T14:42:22.425Z,27.80
2022-08-12T14:45:01.295Z,27.55
2022-08-12T14:47:35.001Z,27.64
2022-08-12T14:50:58.796Z,27.59
2022-08-12T14:59:23.735Z,27.52
2022-08-12T15:01:54.524Z,27.51
2022-08-12T15:04:29.211Z,27.47
2022-08-12T15:07:01.347Z,27.55
2022-08-12T15:09:32.819Z,27.72
2022-08-12T15:12:05.433Z,27.66
2022-08-12T15:14:46.028Z,27.61
2022-08-12T15:17:37.496Z,27.39
2022-08-12T15:20:11.996Z,27.14
2022-08-12T15:23:00.708Z,26.98
2022-08-12T15:25:40.162Z,26.84
2022-08-12T15:28:23.230Z,26.81
2022-08-12T15:30:55.779Z,26.92
2022-08-12T15:33:45.309Z,27.02
2022-08-12T15:36:36.577Z,27.05
2022-08-12T15:39:17.758Z,27.18
2022-08-12T15:41:50.897Z,27.24
2022-08-12T15:44:42.273Z,27.20
2022-08-12T15:47:16.279Z,27.21
2022-08-12T15:49:59.593Z,27.11
2022-08-12T15:52:32.633Z,27.03
2022-08-12T15:55:11.711Z,27.03
2022-08-12T15:58:01.951Z,27.06
2022-08-12T16:00:37.801Z,27.19
2022-08-12T16:03:13.560Z,27.22
2022-08-12T16:06:11.487Z,27.26
2022-08-12T16:08:42.450Z,27.29
2022-08-12T16:11:18.843Z,27.20
2022-08-12T16:13:52.020Z,27.16
2022-08-12T16:16:25.042Z,27.09
2022-08-12T16:19:00.781Z,27.02
2022-08-12T16:21:52.812Z,26.89
2022-08-12T16:24:30.010Z,26.81
2022-08-12T16:27:01.498Z,26.70
2022-08-12T16:29:53.224Z,26.66
2022-08-12T16:32:31.575Z,26.72
2022-08-12T16:35:08.229Z,26.71
2022-08-12T16:38:27.726Z,26.70
2022-08-12T16:40:46.464Z,26.71
2022-08-12T16:43:28.191Z,26.78
2022-08-12T16:46:05.194Z,26.72
2022-08-12T16:48:55.030Z,26.71
2022-08-12T16:51:26.750Z,26.69
2022-08-12T16:54:00.331Z,26.64
2022-08-12T16:56:37.241Z,26.61
2022-08-12T16:59:16.009Z,26.58
2022-08-12T17:01:50.159Z,26.49
2022-08-12T17:04:24.264Z,26.47
2022-08-12T17:06:55.974Z,26.46
2022-08-12T17:09:34.335Z,26.40
2022-08-12T17:12:12.083Z,26.42
2022-08-12T17:14:47.299Z,26.40
2022-08-12T17:17:39.477Z,26.35
2022-08-12T17:20:28.961Z,26.28
2022-08-12T17:23:09.889Z,26.24
2022-08-12T17:25:45.722Z,26.21
2022-08-12T17:28:21.337Z,26.21
2022-08-12T17:30:59.786Z,26.13
2022-08-12T17:33:33.676Z,26.12
2022-08-12T17:36:07.300Z,26.14
2022-08-12T17:38:43.415Z,26.10
2022-08-12T17:41:56.262Z,25.99
2022-08-12T17:44:16.988Z,25.93
2022-08-12T17:46:53.781Z,25.89
2022-08-12T17:50:01.920Z,25.86
2022-08-12T17:52:20.853Z,25.82
2022-08-12T17:54:53.021Z,25.82
2022-08-12T17:57:29.225Z,25.79
2022-08-12T18:00:01.060Z,25.71
2022-08-12T18:02:36.310Z,25.68
2022-08-12T18:05:10.027Z,25.64
2022-08-12T18:07:45.989Z,25.65
2022-08-12T18:10:42.894Z,25.63
2022-08-12T18:13:37.801Z,25.59
2022-08-12T18:16:10.124Z,25.56
2022-08-12T18:18:44.481Z,25.53
2022-08-12T18:21:16.010Z,25.53
2022-08-12T18:23:54.046Z,25.51
2022-08-12T18:26:27.132Z,25.48
2022-08-12T18:28:58.901Z,25.43
2022-08-12T18:31:44.697Z,25.39
2022-08-12T18:34:24.100Z,25.37
2022-08-12T18:36:59.586Z,25.36
2022-08-12T18:40:03.256Z,25.33
2022-08-12T18:42:35.099Z,25.28
2022-08-12T18:45:08.047Z,25.25
2022-08-12T18:47:46.871Z,25.20
2022-08-12T18:50:24.702Z,25.15
2022-08-12T18:52:56.658Z,25.10
2022-08-12T18:55:37.364Z,25.07
2022-08-12T18:58:11.604Z,25.01
2022-08-12T19:00:45.992Z,24.96
2022-08-12T19:03:38.799Z,24.92
2022-08-12T19:06:10.906Z,24.90
2022-08-12T19:08:49.300Z,24.85
2022-08-12T19:11:40.442Z,24.80
2022-08-12T19:14:27.980Z,24.74
2022-08-12T19:17:02.129Z,24.63
2022-08-12T19:19:37.235Z,24.62
2022-08-12T19:22:13.557Z,24.58
2022-08-12T19:25:19.549Z,24.54
2022-08-12T19:27:55.606Z,24.50
2022-08-12T19:30:48.613Z,24.46
2022-08-12T19:33:24.155Z,24.41
2022-08-12T19:36:24.559Z,24.39
2022-08-12T19:38:56.465Z,24.34
2022-08-12T19:41:42.619Z,24.27
2022-08-12T19:44:16.619Z,24.21
2022-08-12T19:46:53.181Z,24.14
2022-08-12T19:49:25.515Z,24.07
2022-08-12T19:51:57.113Z,24.02
2022-08-12T19:54:30.540Z,23.96
2022-08-12T19:57:02.333Z,23.92
2022-08-12T19:59:42.940Z,23.86
2022-08-12T20:02:32.841Z,23.80
2022-08-12T20:06:02.856Z,23.77
2022-08-12T20:08:00.545Z,23.74
2022-08-12T20:10:36.205Z,23.69
2022-08-12T20:13:19.187Z,23.63
2022-08-12T20:15:59.903Z,23.60
2022-08-12T20:18:53.365Z,23.50
2022-08-12T20:21:24.737Z,23.43
2022-08-12T20:24:01.002Z,23.41
2022-08-12T20:26:34.404Z,23.38
2022-08-12T20:29:06.073Z,23.36
2022-08-12T20:31:38.186Z,23.27
2022-08-12T20:34:12.099Z,23.23
2022-08-12T20:36:45.112Z,23.19
2022-08-12T20:39:52.068Z,23.13
2022-08-12T20:42:09.801Z,23.04
2022-08-12T20:44:42.018Z,22.99
2022-08-12T20:47:18.362Z,22.98
2022-08-12T20:49:55.995Z,22.93
2022-08-12T20:52:34.008Z,22.86
2022-08-12T20:55:15.813Z,22.83
2022-08-12T20:58:02.755Z,22.81
2022-08-12T21:00:36.450Z,22.76
2022-08-12T21:03:28.350Z,22.72
2022-08-12T21:06:24.328Z,22.68
2022-08-12T21:09:00.004Z,22.66
2022-08-12T21:11:32.730Z,22.61
2022-08-12T21:14:04.999Z,22.56
2022-08-12T21:16:42.207Z,22.52
2022-08-12T21:19:22.287Z,22.48
2022-08-12T21:21:58.806Z,22.43
2022-08-12T21:24:32.267Z,22.40
2022-08-12T21:27:07.515Z,22.35
2022-08-12T21:29:54.945Z,22.30
2022-08-12T21:32:36.054Z,22.25
2022-08-12T21:35:09.819Z,22.19
2022-08-12T21:37:42.505Z,22.17
2022-08-12T21:40:36.762Z,22.07
2022-08-12T21:43:09.847Z,22.00
2022-08-12T21:45:46.409Z,21.99
2022-08-12T21:48:29.328Z,21.96
2022-08-12T21:51:00.840Z,21.91
2022-08-12T21:54:07.629Z,21.90
2022-08-12T21:56:34.682Z,21.88
2022-08-12T21:59:07.341Z,21.84
2022-08-12T22:01:49.491Z,21.80
2022-08-12T22:04:40.033Z,21.77
2022-08-12T22:07:13.421Z,21.68
2022-08-12T22:09:57.183Z,21.64
2022-08-12T22:12:37.616Z,21.60
2022-08-12T22:15:09.682Z,21.54
2022-08-12T22:17:55.569Z,21.49
2022-08-12T22:20:29.664Z,21.44
2022-08-12T22:23:07.590Z,21.39
2022-08-12T22:25:53.429Z,21.35
2022-08-12T22:28:43.742Z,21.30
2022-08-12T22:31:16.189Z,21.26
2022-08-12T22:33:54.520Z,21.21
2022-08-12T22:36:31.075Z,21.16
2022-08-12T22:39:08.888Z,21.10
2022-08-12T22:42:00.535Z,21.09
2022-08-12T22:44:54.118Z,21.04
2022-08-12T22:47:55.052Z,21.04
2022-08-12T22:50:28.914Z,21.01
2022-08-12T22:53:16.984Z,20.96
2022-08-12T22:55:59.846Z,20.86
2022-08-12T22:58:41.268Z,20.83
2022-08-12T23:01:51.586Z,20.79
2022-08-12T23:04:12.079Z,20.73
2022-08-12T23:06:48.992Z,20.70
2022-08-12T23:09:26.301Z,20.70
2022-08-12T23:12:06.413Z,20.66
2022-08-12T23:14:40.694Z,20.63
2022-08-12T23:17:21.353Z,20.61
2022-08-12T23:20:03.949Z,20.55
2022-08-12T23:22:36.957Z,20.51
2022-08-12T23:25:20.958Z,20.45
2022-08-12T23:28:30.109Z,20.43
2022-08-12T23:31:04.418Z,20.39
2022-08-12T23:34:01.915Z,20.34
2022-08-12T23:36:39.150Z,20.30
2022-08-12T23:40:13.940Z,20.27
2022-08-12T23:42:18.258Z,20.23
2022-08-12T23:44:53.698Z,20.22
2022-08-12T23:47:25.210Z,20.17
2022-08-12T23:50:03.152Z,20.15
2022-08-12T23:52:46.620Z,20.12
2022-08-12T23:55:24.785Z,20.07
2022-08-12T23:58:21.615Z,20.06
